sensor_id;sensor_type;location;lat;lon;timestamp;pressure;altitude;pressure_sealevel;temperature;humidity
45939;BME280;31650;48.818;9.116;2023-03-01T00:10:46;98773.03;;;-4.52;100.00
45939;BME280;31650;48.818;9.116;2023-03-01T00:25:46;98776.50;;;-4.90;100.00
45939;BME280;31650;48.818;9.116;2023-03-01T00:40:46;98770.44;;;-4.79;100.00
45939;BME280;31650;48.818;9.116;2023-03-01T00:55:46;98770.19;;;-5.15;100.00
45939;BME280;31650;48.818;9.116;2023-03-01T01:10:47;98772.22;;;-5.32;100.00
45939;BME280;31650;48.818;9.116;2023-03-01T01:25:47;98772.94;;;-5.43;100.00
45939;BME280;31650;48.818;9.116;2023-03-01T01:40:48;98732.84;;;-5.51;100.00
45939;BME280;31650;48.818;9.116;2023-03-01T01:55:51;98724.19;;;-5.41;100.00
45939;BME280;31650;48.818;9.116;2023-03-01T02:10:52;98712.66;;;-5.27;100.00
45939;BME280;31650;48.818;9.116;2023-03-01T02:41:14;98681.31;;;-3.94;100.00
45939;BME280;31650;48.818;9.116;2023-03-01T02:56:15;98661.06;;;-3.59;100.00
45939;BME280;31650;48.818;9.116;2023-03-01T03:11:15;98645.88;;;-3.22;100.00
45939;BME280;31650;48.818;9.116;2023-03-01T03:26:16;98626.03;;;-3.18;100.00
45939;BME280;31650;48.818;9.116;2023-03-01T03:41:16;98624.88;;;-3.03;100.00
45939;BME280;31650;48.818;9.116;2023-03-01T03:56:16;98625.59;;;-3.01;100.00
45939;BME280;31650;48.818;9.116;2023-03-01T04:11:17;98599.63;;;-2.86;100.00
45939;BME280;31650;48.818;9.116;2023-03-01T04:26:26;98584.25;;;-2.71;100.00
45939;BME280;31650;48.818;9.116;2023-03-01T04:41:27;98581.19;;;-2.55;100.00
45939;BME280;31650;48.818;9.116;2023-03-01T04:56:27;98584.47;;;-2.40;100.00
45939;BME280;31650;48.818;9.116;2023-03-01T05:11:28;98586.38;;;-2.31;100.00
45939;BME280;31650;48.818;9.116;2023-03-01T05:26:33;98575.13;;;-2.23;100.00
45939;BME280;31650;48.818;9.116;2023-03-01T07:14:48;98545.38;;;-1.54;100.00
45939;BME280;31650;48.818;9.116;2023-03-01T07:29:48;98527.72;;;0.16;100.00
45939;BME280;31650;48.818;9.116;2023-03-01T07:44:48;98510.09;;;0.72;84.49
45939;BME280;31650;48.818;9.116;2023-03-01T07:59:48;98496.03;;;1.99;76.12
45939;BME280;31650;48.818;9.116;2023-03-01T08:14:48;98485.59;;;1.32;77.82
45939;BME280;31650;48.818;9.116;2023-03-01T08:29:49;98487.66;;;2.38;73.94
45939;BME280;31650;48.818;9.116;2023-03-01T08:44:49;98476.38;;;2.78;70.89
45939;BME280;31650;48.818;9.116;2023-03-01T08:59:49;98458.59;;;3.03;69.13
45939;BME280;31650;48.818;9.116;2023-03-01T09:14:49;98446.50;;;3.58;65.83
45939;BME280;31650;48.818;9.116;2023-03-01T09:29:49;98421.19;;;4.01;65.46
45939;BME280;31650;48.818;9.116;2023-03-01T09:45:00;98423.53;;;4.37;64.43
45939;BME280;31650;48.818;9.116;2023-03-01T10:00:44;98411.22;;;4.59;62.84
45939;BME280;31650;48.818;9.116;2023-03-01T10:15:30;98384.22;;;4.92;59.75
45939;BME280;31650;48.818;9.116;2023-03-01T11:00:45;98330.88;;;6.78;55.26
45939;BME280;31650;48.818;9.116;2023-03-01T11:15:59;98306.22;;;7.03;54.20
45939;BME280;31650;48.818;9.116;2023-03-01T11:31:09;98275.03;;;8.15;52.25
45939;BME280;31650;48.818;9.116;2023-03-01T13:16:57;98111.69;;;8.49;49.32
45939;BME280;31650;48.818;9.116;2023-03-01T13:31:57;98127.19;;;7.51;52.55
45939;BME280;31650;48.818;9.116;2023-03-01T13:47:14;98108.66;;;7.26;53.60
45939;BME280;31650;48.818;9.116;2023-03-01T14:02:15;98109.41;;;6.70;54.87
45939;BME280;31650;48.818;9.116;2023-03-01T14:17:21;98086.72;;;6.86;55.63
45939;BME280;31650;48.818;9.116;2023-03-01T14:32:29;98115.00;;;6.47;56.68
45939;BME280;31650;48.818;9.116;2023-03-01T14:47:34;98121.38;;;6.10;57.16
45939;BME280;31650;48.818;9.116;2023-03-01T15:02:35;98131.31;;;6.24;57.08
45939;BME280;31650;48.818;9.116;2023-03-01T15:17:37;98127.81;;;6.09;57.42
45939;BME280;31650;48.818;9.116;2023-03-01T15:32:38;98128.00;;;5.78;58.48
45939;BME280;31650;48.818;9.116;2023-03-01T15:47:40;98114.22;;;6.02;58.05
45939;BME280;31650;48.818;9.116;2023-03-01T16:02:41;98101.69;;;5.94;57.20
45939;BME280;31650;48.818;9.116;2023-03-01T16:17:41;98093.97;;;5.24;60.11
45939;BME280;31650;48.818;9.116;2023-03-01T16:32:42;98103.06;;;4.85;60.74
45939;BME280;31650;48.818;9.116;2023-03-01T16:47:43;98115.69;;;4.38;62.26
45939;BME280;31650;48.818;9.116;2023-03-01T17:02:43;98127.06;;;3.70;64.33
45939;BME280;31650;48.818;9.116;2023-03-01T17:17:43;98151.88;;;3.16;66.56
45939;BME280;31650;48.818;9.116;2023-03-01T17:32:44;98181.69;;;2.55;69.99
45939;BME280;31650;48.818;9.116;2023-03-01T17:47:44;98181.38;;;2.08;72.98
45939;BME280;31650;48.818;9.116;2023-03-01T18:02:44;98183.16;;;1.65;77.27
45939;BME280;31650;48.818;9.116;2023-03-01T18:17:45;98179.69;;;1.02;81.33
45939;BME280;31650;48.818;9.116;2023-03-01T18:32:45;98192.13;;;0.40;89.23
45939;BME280;31650;48.818;9.116;2023-03-01T18:47:45;98197.97;;;0.08;95.51
45939;BME280;31650;48.818;9.116;2023-03-01T19:02:48;98172.25;;;-0.31;100.00
45939;BME280;31650;48.818;9.116;2023-03-01T19:17:48;98172.00;;;-0.10;100.00
45939;BME280;31650;48.818;9.116;2023-03-01T19:32:49;98152.91;;;-0.15;100.00
45939;BME280;31650;48.818;9.116;2023-03-01T19:47:51;98159.66;;;0.17;100.00
45939;BME280;31650;48.818;9.116;2023-03-01T20:02:51;98156.44;;;-0.14;100.00
45939;BME280;31650;48.818;9.116;2023-03-01T20:17:51;98178.41;;;-0.77;100.00
45939;BME280;31650;48.818;9.116;2023-03-01T20:32:52;98177.38;;;-0.57;100.00
45939;BME280;31650;48.818;9.116;2023-03-01T20:47:52;98160.06;;;-0.43;100.00
45939;BME280;31650;48.818;9.116;2023-03-01T21:02:52;98165.69;;;-1.03;100.00
45939;BME280;31650;48.818;9.116;2023-03-01T21:17:53;98164.28;;;-1.46;100.00
45939;BME280;31650;48.818;9.116;2023-03-01T21:32:53;98163.84;;;-1.70;100.00
45939;BME280;31650;48.818;9.116;2023-03-01T21:47:53;98154.13;;;-1.91;100.00
45939;BME280;31650;48.818;9.116;2023-03-01T22:02:54;98142.94;;;-1.65;100.00
45939;BME280;31650;48.818;9.116;2023-03-01T22:17:56;98139.97;;;-1.82;100.00
45939;BME280;31650;48.818;9.116;2023-03-01T22:32:57;98138.91;;;-2.20;100.00
45939;BME280;31650;48.818;9.116;2023-03-01T22:47:58;98140.91;;;-2.52;100.00
45939;BME280;31650;48.818;9.116;2023-03-01T23:02:59;98139.59;;;-2.58;100.00
45939;BME280;31650;48.818;9.116;2023-03-01T23:17:59;98130.75;;;-2.89;100.00
45939;BME280;31650;48.818;9.116;2023-03-01T23:32:59;98130.72;;;-2.68;100.00
45939;BME280;31650;48.818;9.116;2023-03-01T23:47:59;98117.00;;;-2.94;100.00
